Search for airport 
image banner adimage banner adimage banner ad
image banner ad

8CA9 - Kgtv-10 Parking Lot

Located in San Diego, United States

ICAO - 8CA9, IATA -

Data provided by Airmate  

General information

Coordinates: N32°43'13" W117°5'51"
Elevation is 200 feet MSL.
Magnetic variation is 13° East
View others Airports in California

Operational data

Special qualification required
Current time UTC:
Current local time:
Weather at : KSAN - San Diego Intl ( 9 km )
METAR: KSAN 292151Z 29009KT 10SM FEW010 SCT050 SCT250 25/18 A2991 RMK AO2 SLP127 T02500178
TAF: KSAN 292042Z 2921/3024 29011G17KT P6SM FEW010 SCT250 FM300300 30005KT P6SM SCT010 FM300700 VRB04KT P6SM BKN008 FM301600 VRB04KT P6SM SCT010 FM302000 29011KT P6SM FEW010 SCT150
View NOTAMs / SUP AIP / TFR affecting this airport [VIEW]
Communications frequencies: [VIEW]

Runways:

Airport contact information

Address: San Diego United States

Satellite view of 8CA9